Time;durP1;ratioP1;P1;durP2;ratioP2;P2;SDS_P1;SDS_P2;PMS_P1;PMS_P2;Temp;Humidity;BMP_temperature;BMP_pressure;BME280_temperature;BME280_humidity;BME280_pressure;Samples;Min_cycle;Max_cycle;Signal;HPM_P1;HPM_P2
2021/08/07 00:00:32;;;;;;;4.97;3.83;;;;;;;29.97;47.71;100026.13;128461;1084;64131;-85
2021/08/07 00:02:58;;;;;;;5.20;3.50;;;;;;;29.97;47.57;100034.30;128477;1084;64109;-85
2021/08/07 00:05:24;;;;;;;5.93;3.30;;;;;;;29.97;47.71;100031.58;128506;1084;64173;-85
2021/08/07 00:07:51;;;;;;;5.20;3.60;;;;;;;29.97;47.42;100045.17;128470;1083;64700;-85
2021/08/07 00:10:19;;;;;;;5.35;3.60;;;;;;;29.97;47.51;100038.91;128499;1084;64131;-86
2021/08/07 00:12:45;;;;;;;6.37;3.97;;;;;;;29.97;47.59;100047.06;128484;1083;64310;-85
2021/08/07 00:15:32;;;;;;;4.50;3.40;;;;;;;29.96;47.43;100046.20;128542;1082;64128;-84
2021/08/07 00:17:59;;;;;;;5.47;3.70;;;;;;;29.97;47.87;100049.79;128491;1082;64154;-86
2021/08/07 00:20:25;;;;;;;5.37;3.60;;;;;;;29.96;47.33;100050.81;128907;1082;64093;-86
2021/08/07 00:22:51;;;;;;;5.03;3.63;;;;;;;29.95;47.29;100049.95;128470;1084;64133;-86
2021/08/07 00:25:17;;;;;;;5.73;3.50;;;;;;;29.96;47.27;100046.20;128517;1082;64147;-86
2021/08/07 00:27:53;;;;;;;5.17;3.70;;;;;;;29.96;47.69;100050.81;128461;1084;64283;-87
2021/08/07 00:30:19;;;;;;;5.53;3.27;;;;;;;29.96;47.39;100050.81;128482;1084;64128;-85
2021/08/07 00:32:46;;;;;;;4.70;3.30;;;;;;;29.96;47.56;100045.38;128452;1084;64237;-85
2021/08/07 00:35:12;;;;;;;4.50;3.40;;;;;;;29.96;47.34;100045.38;128527;1084;64144;-86
2021/08/07 00:37:38;;;;;;;4.83;3.27;;;;;;;29.95;47.28;100054.55;128511;1083;64102;-86
2021/08/07 00:40:12;;;;;;;4.20;3.20;;;;;;;29.93;47.75;100050.14;128914;1084;64099;-86
2021/08/07 00:42:39;;;;;;;5.33;3.53;;;;;;;29.95;47.40;100054.55;128903;1084;64144;-86
2021/08/07 00:45:05;;;;;;;4.63;3.47;;;;;;;29.95;47.59;100054.55;128517;1084;64121;-87
2021/08/07 00:47:32;;;;;;;4.80;3.37;;;;;;;29.95;47.50;100060.00;128924;1084;64198;-85
2021/08/07 00:49:58;;;;;;;4.53;3.23;;;;;;;29.93;47.39;100066.47;128446;1084;64204;-85
2021/08/07 00:52:24;;;;;;;5.07;3.10;;;;;;;29.95;47.38;100073.60;128470;1084;64275;-85
2021/08/07 00:54:52;;;;;;;5.20;3.50;;;;;;;29.95;47.39;100081.77;128943;1084;64147;-85
2021/08/07 00:57:18;;;;;;;4.60;3.45;;;;;;;29.94;47.33;100083.66;128557;1082;64111;-85
2021/08/07 00:59:45;;;;;;;4.90;3.37;;;;;;;29.93;47.78;100085.51;128568;1083;64143;-85
2021/08/07 01:02:19;;;;;;;4.10;3.03;;;;;;;29.95;47.80;100084.48;129018;1084;64227;-86
2021/08/07 01:05:02;;;;;;;4.50;3.10;;;;;;;29.95;47.44;100082.59;128743;1082;64826;-85
2021/08/07 01:07:47;;;;;;;5.70;3.47;;;;;;;29.95;47.80;100082.59;129506;1084;64266;-85
2021/08/07 01:10:39;;;;;;;4.70;3.17;;;;;;;29.96;47.51;100088.91;128464;1084;64278;-87
2021/08/07 01:13:20;;;;;;;5.20;3.40;;;;;;;29.96;47.73;100097.91;128687;1084;64186;-85
2021/08/07 01:15:56;;;;;;;5.00;3.13;;;;;;;29.96;47.61;100095.18;128539;1083;64016;-86
2021/08/07 01:18:26;;;;;;;5.40;3.35;;;;;;;29.96;47.39;100089.73;128526;1084;64374;-86
2021/08/07 01:20:54;;;;;;;4.73;3.23;;;;;;;29.96;47.36;100092.45;128486;1084;64232;-86
2021/08/07 01:23:40;;;;;;;4.90;3.40;;;;;;;29.96;47.86;100086.19;128556;1082;64265;-86
2021/08/07 01:26:17;;;;;;;4.47;3.03;;;;;;;29.93;47.75;100085.51;128952;1083;64587;-86
2021/08/07 01:28:43;;;;;;;4.50;3.33;;;;;;;29.95;47.42;100093.48;128475;1084;64460;-85
2021/08/07 01:31:11;;;;;;;4.40;3.37;;;;;;;29.95;47.72;100092.65;128511;1084;64131;-86
2021/08/07 01:33:42;;;;;;;4.53;3.27;;;;;;;29.93;47.68;100093.67;128532;1084;64875;-86
2021/08/07 01:36:13;;;;;;;4.43;3.17;;;;;;;29.93;47.52;100085.51;128490;1082;64163;-86
2021/08/07 01:38:39;;;;;;;4.90;3.07;;;;;;;29.93;47.38;100084.68;128469;1084;65111;-86
2021/08/07 01:41:19;;;;;;;4.25;3.20;;;;;;;29.93;47.89;100074.63;128461;1083;64176;-86
2021/08/07 01:43:45;;;;;;;5.10;3.40;;;;;;;29.92;47.56;100069.38;128474;1084;64160;-85
2021/08/07 01:46:16;;;;;;;4.47;3.20;;;;;;;29.92;47.89;100067.48;128520;1084;64289;-86
2021/08/07 01:49:08;;;;;;;4.43;3.13;;;;;;;29.92;47.79;100067.48;128450;1082;64131;-87
2021/08/07 01:51:50;;;;;;;4.13;3.03;;;;;;;29.91;47.94;100060.38;128904;1084;64108;-86
2021/08/07 01:54:21;;;;;;;4.17;2.90;;;;;;;29.91;47.49;100057.66;128906;1084;64137;-86
2021/08/07 01:56:47;;;;;;;4.23;3.10;;;;;;;29.91;47.50;100049.50;128528;1083;64122;-85
2021/08/07 01:59:15;;;;;;;4.57;3.00;;;;;;;29.91;47.80;100049.50;128477;1084;64214;-86
2021/08/07 02:01:45;;;;;;;3.90;2.90;;;;;;;29.91;47.80;100052.22;128470;1084;64174;-85
2021/08/07 02:04:11;;;;;;;4.70;3.10;;;;;;;29.90;47.76;100055.96;128496;1084;64281;-86
2021/08/07 02:06:42;;;;;;;4.53;3.10;;;;;;;29.91;47.53;100056.80;128437;1083;64134;-85
2021/08/07 02:09:08;;;;;;;4.67;3.00;;;;;;;29.91;47.30;100064.95;128509;1081;64142;-85
2021/08/07 02:11:35;;;;;;;4.20;3.10;;;;;;;29.90;47.55;100075.01;128896;1084;64125;-85
2021/08/07 02:14:04;;;;;;;4.80;3.00;;;;;;;29.91;47.74;100073.13;128519;1083;64128;-85
2021/08/07 02:16:30;;;;;;;5.03;3.00;;;;;;;29.90;47.51;100076.90;128919;1083;64122;-85
2021/08/07 02:18:56;;;;;;;4.13;3.00;;;;;;;29.91;47.49;100086.72;128464;1084;64364;-85
2021/08/07 02:21:23;;;;;;;3.87;3.00;;;;;;;29.90;47.63;100087.78;128483;1084;64147;-87
2021/08/07 02:23:49;;;;;;;3.87;2.80;;;;;;;29.90;47.76;100091.33;128516;1082;64125;-85
2021/08/07 02:26:21;;;;;;;4.60;3.10;;;;;;;29.90;48.15;100099.49;128909;1082;64172;-85
2021/08/07 02:28:50;;;;;;;4.00;2.90;;;;;;;29.90;47.79;100104.10;128495;1084;64169;-85
2021/08/07 02:31:17;;;;;;;4.80;3.10;;;;;;;29.89;47.37;100114.13;128501;1084;64115;-85
2021/08/07 02:33:47;;;;;;;3.77;2.90;;;;;;;29.89;47.75;100105.96;128489;1084;64165;-86
2021/08/07 02:36:14;;;;;;;5.10;3.17;;;;;;;29.90;47.43;100123.98;128518;1083;61824;-86
2021/08/07 02:38:41;;;;;;;4.03;3.00;;;;;;;29.90;47.63;100120.43;128502;1084;63938;-85
2021/08/07 02:41:07;;;;;;;4.60;3.40;;;;;;;29.88;47.55;100115.14;128520;1084;64147;-86
2021/08/07 02:43:33;;;;;;;4.00;2.90;;;;;;;29.90;47.31;100131.31;128521;1083;64200;-87
2021/08/07 02:46:00;;;;;;;4.33;3.03;;;;;;;29.90;47.36;100134.03;128497;1084;64220;-86
2021/08/07 02:48:26;;;;;;;4.00;2.90;;;;;;;29.89;47.32;100132.34;128490;1084;64118;-86
2021/08/07 02:50:55;;;;;;;4.40;3.00;;;;;;;29.88;47.38;100131.47;128881;1084;64166;-87
2021/08/07 02:53:22;;;;;;;4.33;2.83;;;;;;;29.90;47.51;100139.48;128507;1084;64204;-86
2021/08/07 02:55:48;;;;;;;4.40;3.00;;;;;;;29.90;47.45;100147.64;128506;1082;64121;-86
2021/08/07 02:58:15;;;;;;;4.13;2.90;;;;;;;29.89;47.29;100148.66;128484;1083;64233;-85
2021/08/07 03:00:51;;;;;;;4.17;3.00;;;;;;;29.88;47.74;100150.52;128520;1084;64121;-86
2021/08/07 03:03:17;;;;;;;4.30;3.03;;;;;;;29.88;47.66;100158.67;128898;1082;64128;-86
2021/08/07 03:05:46;;;;;;;3.87;2.70;;;;;;;29.88;47.60;100164.12;128518;1084;64128;-85
2021/08/07 03:08:12;;;;;;;3.73;2.80;;;;;;;29.89;47.40;100170.42;128543;1084;63936;-85
2021/08/07 03:10:40;;;;;;;4.70;2.97;;;;;;;29.88;47.17;100177.72;128912;1084;64133;-86
2021/08/07 03:13:10;;;;;;;3.63;2.70;;;;;;;29.88;47.35;100169.56;128503;1084;64143;-86
2021/08/07 03:15:36;;;;;;;4.10;3.00;;;;;;;29.88;47.62;100171.45;128936;1084;64099;-85
2021/08/07 03:18:02;;;;;;;3.97;2.90;;;;;;;29.88;47.20;100171.45;128468;1084;64559;-85
2021/08/07 03:20:31;;;;;;;3.90;2.70;;;;;;;29.88;47.66;100176.89;128447;1082;64202;-86
2021/08/07 03:23:04;;;;;;;4.23;2.73;;;;;;;29.88;47.36;100176.89;128496;1084;64096;-85
2021/08/07 03:25:39;;;;;;;3.83;2.80;;;;;;;29.88;47.08;100179.61;128540;1082;64122;-86
2021/08/07 03:28:05;;;;;;;4.40;2.57;;;;;;;29.89;47.30;100186.75;128507;1084;64121;-85
2021/08/07 03:30:32;;;;;;;5.07;2.90;;;;;;;29.89;47.27;100200.35;128505;1084;64301;-86
2021/08/07 03:33:02;;;;;;;4.00;2.77;;;;;;;29.88;47.35;100202.21;128435;1084;64150;-85
2021/08/07 03:35:29;;;;;;;4.13;2.90;;;;;;;29.88;47.74;100201.38;128932;1084;64411;-85
2021/08/07 03:37:55;;;;;;;3.80;2.70;;;;;;;29.88;47.55;100206.81;128465;1084;64278;-86
2021/08/07 03:40:21;;;;;;;3.90;2.60;;;;;;;29.88;47.36;100217.70;128440;1084;64131;-86
2021/08/07 03:42:47;;;;;;;4.00;2.90;;;;;;;29.88;47.74;100218.53;128483;1084;64128;-86
2021/08/07 03:45:14;;;;;;;5.30;2.90;;;;;;;29.88;47.36;100215.81;128495;1084;64298;-85
2021/08/07 03:47:49;;;;;;;3.90;2.67;;;;;;;29.88;47.52;100223.98;128501;1084;64231;-86
2021/08/07 03:50:20;;;;;;;3.23;2.40;;;;;;;29.87;47.33;100230.47;128881;1082;64136;-85
2021/08/07 03:52:49;;;;;;;4.00;2.80;;;;;;;29.88;47.82;100242.19;128913;1084;64131;-86
2021/08/07 03:55:15;;;;;;;3.90;2.70;;;;;;;29.88;47.86;100239.47;128932;1084;64134;-86
2021/08/07 03:58:08;;;;;;;4.43;2.77;;;;;;;29.88;47.66;100245.74;128516;1084;64227;-86
2021/08/07 04:00:34;;;;;;;4.40;2.87;;;;;;;29.88;47.50;100250.34;128359;1086;64274;-87
2021/08/07 04:03:01;;;;;;;4.10;2.80;;;;;;;29.88;47.33;100259.34;128004;1087;64137;-85
2021/08/07 04:05:27;;;;;;;4.63;2.90;;;;;;;29.89;47.47;100262.94;127954;1087;64297;-86
2021/08/07 04:08:03;;;;;;;3.80;2.47;;;;;;;29.87;47.58;100260.40;128005;1087;64103;-85
2021/08/07 04:10:29;;;;;;;3.80;2.70;;;;;;;29.88;47.65;100270.23;128415;1087;64243;-86
2021/08/07 04:12:57;;;;;;;3.57;2.50;;;;;;;29.88;47.92;100274.83;127920;1087;64469;-86
2021/08/07 04:15:24;;;;;;;4.70;2.90;;;;;;;29.88;47.70;100270.23;127948;1085;63914;-87
2021/08/07 04:17:51;;;;;;;4.00;2.60;;;;;;;29.88;47.71;100269.39;127969;1086;63941;-85
2021/08/07 04:20:20;;;;;;;4.00;2.43;;;;;;;29.88;47.76;100277.55;128013;1087;64242;-86
2021/08/07 04:22:46;;;;;;;4.93;2.70;;;;;;;29.88;47.66;100283.83;127964;1087;64131;-86
2021/08/07 04:25:15;;;;;;;4.20;2.80;;;;;;;29.89;47.79;100288.25;128032;1087;64234;-85
2021/08/07 04:27:41;;;;;;;;;;;;;;;29.87;47.51;100284.02;128047;1087;64341;-86
2021/08/07 04:30:08;;;;;;;4.93;2.63;;;;;;;29.87;47.41;100278.58;128034;1087;64095;-85
2021/08/07 04:32:34;;;;;;;3.93;2.67;;;;;;;29.87;47.80;100284.02;128007;1087;64097;-85
2021/08/07 04:35:01;;;;;;;4.13;2.73;;;;;;;29.88;47.13;100302.05;128013;1087;63947;-85
2021/08/07 04:37:30;;;;;;;3.63;2.70;;;;;;;29.89;47.63;100301.86;128128;1084;64209;-86
2021/08/07 04:39:56;;;;;;;4.87;2.90;;;;;;;29.88;47.45;100308.32;128460;1084;64343;-86
2021/08/07 04:42:22;;;;;;;3.70;2.57;;;;;;;29.89;47.47;100311.91;128457;1082;64705;-86
2021/08/07 04:44:49;;;;;;;4.60;2.63;;;;;;;29.89;47.27;100309.19;128519;1084;65114;-86
2021/08/07 04:47:15;;;;;;;3.80;2.80;;;;;;;29.88;47.24;100321.92;128444;1084;64147;-87
2021/08/07 04:49:41;;;;;;;6.03;2.83;;;;;;;29.89;47.09;100318.19;128529;1084;64296;-85
2021/08/07 04:52:08;;;;;;;4.23;2.63;;;;;;;29.90;47.60;100333.48;128496;1084;64198;-86
2021/08/07 04:54:34;;;;;;;4.20;2.80;;;;;;;29.89;47.06;100330.95;128566;1084;62263;-84
2021/08/07 04:57:00;;;;;;;3.47;2.50;;;;;;;29.90;47.17;100335.38;128480;1084;64391;-85
2021/08/07 04:59:27;;;;;;;3.60;2.53;;;;;;;29.91;47.19;100340.63;128508;1084;64211;-85
2021/08/07 05:01:53;;;;;;;3.63;2.53;;;;;;;29.91;46.89;100345.20;128925;1083;64132;-85
2021/08/07 05:04:19;;;;;;;3.67;2.60;;;;;;;29.93;47.19;100348.61;128567;1084;62435;-85
2021/08/07 05:06:45;;;;;;;3.83;2.67;;;;;;;29.93;47.24;100346.72;128629;1084;64144;-85
2021/08/07 05:09:11;;;;;;;4.80;3.00;;;;;;;29.94;47.40;100344.88;128731;1084;64172;-85
2021/08/07 05:11:37;;;;;;;4.07;2.50;;;;;;;29.95;47.55;100346.54;128665;1082;63374;-85
2021/08/07 05:14:03;;;;;;;4.20;2.70;;;;;;;29.96;48.07;100347.41;128557;1082;64637;-85
2021/08/07 05:16:30;;;;;;;3.80;2.60;;;;;;;29.97;47.66;100354.55;128499;1084;64141;-86
2021/08/07 05:19:16;;;;;;;3.63;2.63;;;;;;;29.98;47.57;100361.66;128902;1084;64188;-86
2021/08/07 05:21:44;;;;;;;4.00;2.67;;;;;;;29.99;47.71;100363.37;128472;1084;64345;-85
2021/08/07 05:24:10;;;;;;;4.47;2.57;;;;;;;30.00;47.91;100363.18;128518;1084;64353;-86
2021/08/07 05:26:36;;;;;;;4.33;3.10;;;;;;;30.00;48.12;100362.34;128523;1084;64136;-86
2021/08/07 05:29:03;;;;;;;4.20;2.50;;;;;;;30.01;48.19;100370.33;128878;1082;64124;-86
2021/08/07 05:31:30;;;;;;;4.10;2.50;;;;;;;30.02;48.31;100377.47;128507;1082;64138;-85
2021/08/07 05:33:56;;;;;;;3.70;2.60;;;;;;;30.03;48.38;100389.19;128517;1084;64125;-86
2021/08/07 05:36:24;;;;;;;3.60;2.60;;;;;;;30.04;47.84;100382.73;128552;1084;63958;-86
2021/08/07 05:38:51;;;;;;;4.78;2.45;;;;;;;30.04;47.88;100380.84;128909;1082;64128;-85
2021/08/07 05:41:21;;;;;;;4.77;2.70;;;;;;;30.04;47.98;100382.73;128514;1084;64130;-86
2021/08/07 05:43:48;;;;;;;3.63;2.60;;;;;;;30.05;48.12;100379.83;128895;1084;64782;-85
2021/08/07 05:46:14;;;;;;;3.50;2.50;;;;;;;30.06;48.24;100386.97;128517;1083;64597;-85
2021/08/07 05:48:40;;;;;;;4.00;2.60;;;;;;;30.07;48.02;100379.64;128455;1083;64230;-86
2021/08/07 05:51:07;;;;;;;3.80;2.70;;;;;;;30.07;48.28;100383.23;128518;1084;64177;-86
2021/08/07 05:53:33;;;;;;;3.63;2.70;;;;;;;30.07;48.57;100391.39;128494;1084;64295;-84
2021/08/07 05:56:03;;;;;;;3.90;2.60;;;;;;;30.09;48.30;100385.77;128926;1082;64147;-87
2021/08/07 05:58:31;;;;;;;4.50;2.80;;;;;;;30.09;48.51;100380.33;128454;1083;63968;-86
2021/08/07 06:00:58;;;;;;;3.47;2.43;;;;;;;30.09;48.15;100386.60;128489;1083;64109;-85
2021/08/07 06:03:27;;;;;;;3.83;2.70;;;;;;;30.11;48.52;100391.86;128444;1084;64029;-86
2021/08/07 06:06:17;;;;;;;4.07;2.60;;;;;;;30.12;48.65;100401.73;128478;1084;64342;-87
2021/08/07 06:08:43;;;;;;;3.50;2.40;;;;;;;30.12;48.44;100399.00;128382;1087;64395;-86
2021/08/07 06:11:13;;;;;;;3.70;2.40;;;;;;;30.13;48.65;100403.43;127903;1086;64108;-86
2021/08/07 06:13:40;;;;;;;3.70;2.60;;;;;;;30.13;48.36;100395.27;127952;1086;64285;-85
2021/08/07 06:16:06;;;;;;;3.90;2.37;;;;;;;30.15;48.15;100405.97;127930;1087;64278;-86
2021/08/07 06:18:32;;;;;;;3.43;2.40;;;;;;;30.16;48.13;100413.11;128020;1087;64435;-86
2021/08/07 06:21:00;;;;;;;3.93;2.50;;;;;;;30.15;48.18;100428.58;128012;1087;64273;-86
2021/08/07 06:23:26;;;;;;;3.50;2.40;;;;;;;30.16;48.54;100427.56;127988;1087;64134;-85
2021/08/07 06:25:52;;;;;;;3.70;2.50;;;;;;;30.17;48.72;100429.27;127979;1086;64144;-85
2021/08/07 06:28:19;;;;;;;4.90;2.60;;;;;;;30.18;48.61;100432.82;127990;1086;64141;-86
2021/08/07 06:30:48;;;;;;;3.87;2.40;;;;;;;30.18;48.24;100432.82;127967;1087;64147;-85
2021/08/07 06:33:14;;;;;;;4.03;2.57;;;;;;;30.18;48.19;100433.69;128005;1086;64282;-86
2021/08/07 06:35:41;;;;;;;4.10;2.50;;;;;;;30.18;48.81;100430.09;128037;1087;64264;-85
2021/08/07 06:38:08;;;;;;;4.10;2.87;;;;;;;30.20;48.16;100433.50;128003;1087;64131;-86
2021/08/07 06:40:40;;;;;;;3.53;2.23;;;;;;;30.20;48.29;100441.67;128035;1086;64128;-85
2021/08/07 06:43:08;;;;;;;3.73;2.50;;;;;;;30.19;48.22;100443.53;128022;1086;64322;-86
2021/08/07 06:45:34;;;;;;;3.70;2.50;;;;;;;30.19;48.75;100443.53;128133;1084;64249;-86
2021/08/07 06:48:01;;;;;;;3.07;2.40;;;;;;;30.20;48.18;100441.67;128518;1082;64199;-86
2021/08/07 06:50:28;;;;;;;3.77;2.50;;;;;;;30.21;48.73;100456.98;128509;1082;64098;-86
2021/08/07 06:52:55;;;;;;;3.30;2.30;;;;;;;30.20;48.21;100450.67;128912;1084;64157;-87
2021/08/07 06:55:23;;;;;;;3.40;2.37;;;;;;;30.20;48.27;100455.28;128498;1083;64173;-85
2021/08/07 06:57:49;;;;;;;3.30;2.40;;;;;;;30.21;48.36;100456.98;128472;1083;64004;-86
2021/08/07 07:00:15;;;;;;;4.23;2.83;;;;;;;30.22;48.61;100462.24;128878;1084;64163;-86
2021/08/07 07:02:41;;;;;;;3.30;2.20;;;;;;;30.22;48.59;100454.08;128519;1083;64123;-85
2021/08/07 07:05:09;;;;;;;3.30;2.37;;;;;;;30.22;48.67;100453.21;128493;1084;64166;-85
2021/08/07 07:07:38;;;;;;;3.13;2.37;;;;;;;30.21;48.07;100460.55;128913;1084;64167;-85
2021/08/07 07:10:10;;;;;;;3.70;2.60;;;;;;;30.23;48.67;100460.36;128491;1082;64138;-87
2021/08/07 07:12:39;;;;;;;3.17;2.20;;;;;;;30.23;48.13;100463.08;128473;1083;64201;-85
2021/08/07 07:15:09;;;;;;;3.80;2.60;;;;;;;30.23;48.32;100473.97;128920;1084;64182;-86
2021/08/07 07:17:36;;;;;;;3.40;2.40;;;;;;;30.24;48.51;100472.95;128480;1084;64230;-86
2021/08/07 07:20:05;;;;;;;3.47;2.20;;;;;;;30.22;48.26;100475.86;128482;1084;64131;-86
2021/08/07 07:22:31;;;;;;;;;;;;;;;30.22;48.46;100478.58;128536;1083;64121;-86
2021/08/07 07:24:58;;;;;;;3.10;2.33;;;;;;;30.21;48.47;100474.16;128435;1084;64152;-86
2021/08/07 07:27:27;;;;;;;3.40;2.47;;;;;;;30.22;47.97;100470.41;128459;1082;64124;-86
2021/08/07 07:29:56;;;;;;;3.10;2.20;;;;;;;30.21;48.02;100468.71;128497;1083;64272;-86
2021/08/07 07:32:25;;;;;;;3.28;2.40;;;;;;;30.22;47.67;100470.41;128479;1084;64131;-86
2021/08/07 07:34:51;;;;;;;3.67;2.33;;;;;;;30.23;48.02;100473.97;128484;1084;64567;-85
2021/08/07 07:37:40;;;;;;;3.30;2.40;;;;;;;30.22;47.92;100473.13;128498;1084;64171;-86
2021/08/07 07:40:07;;;;;;;3.73;2.70;;;;;;;30.22;48.48;100474.98;127956;1087;64157;-85
2021/08/07 07:42:33;;;;;;;3.60;2.37;;;;;;;30.22;47.97;100478.58;127923;1087;64102;-85
2021/08/07 07:45:00;;;;;;;3.03;2.30;;;;;;;30.23;47.96;100472.12;128164;1087;64236;-84
2021/08/07 07:47:27;;;;;;;3.57;2.40;;;;;;;30.24;47.86;100475.67;128174;1085;64302;-84
2021/08/07 07:49:54;;;;;;;3.40;2.30;;;;;;;30.24;48.11;100487.41;128249;1087;64406;-84
2021/08/07 07:52:20;;;;;;;3.30;2.50;;;;;;;30.25;48.41;100480.10;127874;1087;64457;-84
2021/08/07 07:54:47;;;;;;;3.00;2.20;;;;;;;30.24;48.42;100481.95;127925;1087;64825;-86
2021/08/07 07:57:13;;;;;;;3.20;2.20;;;;;;;30.25;48.41;100489.10;127937;1087;64642;-86
2021/08/07 07:59:49;;;;;;;3.87;2.30;;;;;;;30.26;47.96;100496.25;127955;1086;64150;-85
2021/08/07 08:02:15;;;;;;;3.00;2.27;;;;;;;30.26;48.41;100493.53;127936;1087;64137;-85
2021/08/07 08:04:41;;;;;;;3.43;2.20;;;;;;;30.28;48.03;100497.95;127955;1087;64179;-85
2021/08/07 08:07:08;;;;;;;3.30;2.40;;;;;;;30.28;47.83;100497.95;128015;1087;64160;-85
2021/08/07 08:09:34;;;;;;;3.07;2.27;;;;;;;30.26;48.14;100507.14;127922;1086;64146;-86
2021/08/07 08:12:08;;;;;;;4.00;2.40;;;;;;;30.28;47.67;100500.67;128052;1085;64262;-86
2021/08/07 08:14:34;;;;;;;3.27;2.20;;;;;;;30.27;47.78;100497.09;128356;1085;64223;-87
2021/08/07 08:17:03;;;;;;;3.20;2.23;;;;;;;30.26;47.84;100501.70;128085;1084;64212;-88
2021/08/07 08:19:33;;;;;;;3.40;2.30;;;;;;;30.26;48.31;100498.98;128511;1084;64137;-86
2021/08/07 08:22:00;;;;;;;3.20;2.10;;;;;;;30.27;48.34;100507.98;128507;1082;64378;-86
2021/08/07 08:24:26;;;;;;;3.60;2.20;;;;;;;30.28;48.12;100506.13;128556;1084;64131;-86
2021/08/07 08:26:52;;;;;;;3.57;2.33;;;;;;;30.26;48.39;100500.83;128902;1084;64150;-86
2021/08/07 08:29:18;;;;;;;3.13;2.10;;;;;;;30.26;48.34;100498.98;128428;1084;64208;-85
2021/08/07 08:31:44;;;;;;;4.30;2.23;;;;;;;30.27;48.34;100497.09;128478;1084;64141;-86
2021/08/07 08:34:11;;;;;;;3.13;2.20;;;;;;;30.26;48.03;100490.81;128938;1084;64124;-86
2021/08/07 08:36:37;;;;;;;2.47;1.87;;;;;;;30.26;47.94;100498.11;128496;1084;64122;-86
2021/08/07 08:39:03;;;;;;;2.60;2.00;;;;;;;30.26;47.70;100503.55;128468;1084;64278;-85
2021/08/07 08:41:33;;;;;;;3.73;2.20;;;;;;;30.26;48.29;100501.70;128457;1083;64176;-85
2021/08/07 08:44:00;;;;;;;2.73;2.07;;;;;;;30.26;47.64;100498.98;128533;1084;64154;-85
2021/08/07 08:46:26;;;;;;;2.90;2.10;;;;;;;30.26;47.76;100501.70;128404;1084;64173;-85
2021/08/07 08:48:52;;;;;;;2.73;1.87;;;;;;;30.26;47.55;100489.94;128419;1084;64128;-86
2021/08/07 08:51:18;;;;;;;4.03;2.03;;;;;;;30.26;47.99;100492.66;128542;1083;64953;-86
2021/08/07 08:53:45;;;;;;;2.67;1.87;;;;;;;30.26;47.79;100490.81;128478;1084;64123;-85
2021/08/07 08:56:14;;;;;;;2.90;2.00;;;;;;;30.26;47.52;100492.66;128457;1084;64281;-86
2021/08/07 08:58:41;;;;;;;3.33;2.00;;;;;;;30.26;47.71;100490.81;128494;1084;64158;-85
2021/08/07 09:01:07;;;;;;;2.97;2.10;;;;;;;30.26;47.76;100485.36;128890;1084;64093;-86
2021/08/07 09:03:33;;;;;;;2.57;1.90;;;;;;;30.26;47.54;100479.91;128530;1084;64136;-85
2021/08/07 09:05:59;;;;;;;3.03;2.00;;;;;;;30.26;47.85;100479.05;128519;1083;64139;-85
2021/08/07 09:08:25;;;;;;;3.10;2.03;;;;;;;30.26;47.56;100485.36;128866;1084;64160;-84
2021/08/07 09:11:11;;;;;;;3.00;1.90;;;;;;;30.27;47.56;100488.92;128418;1084;64205;-83
2021/08/07 09:13:37;;;;;;;2.40;1.87;;;;;;;30.28;47.30;100500.67;128982;1082;64145;-85
2021/08/07 09:16:08;;;;;;;3.17;1.90;;;;;;;30.29;47.75;100496.91;128978;1084;63061;-85
2021/08/07 09:18:35;;;;;;;2.97;2.10;;;;;;;30.29;47.52;100494.19;128972;1082;64090;-85
2021/08/07 09:21:18;;;;;;;2.37;1.80;;;;;;;30.29;47.40;100500.50;128491;1084;64205;-84
2021/08/07 09:23:44;;;;;;;2.80;1.80;;;;;;;30.30;47.47;100488.59;128530;1084;64278;-86
2021/08/07 09:26:23;;;;;;;2.63;1.90;;;;;;;30.30;47.63;100493.16;128507;1084;64224;-86
2021/08/07 09:28:50;;;;;;;;;;;;;;;30.29;47.25;100494.19;128542;1084;63957;-85
2021/08/07 09:31:20;;;;;;;3.50;1.80;;;;;;;30.28;47.09;100490.63;128459;1084;64153;-86
2021/08/07 09:33:47;;;;;;;3.10;2.10;;;;;;;30.27;47.61;100488.92;128464;1083;65036;-85
2021/08/07 09:36:13;;;;;;;2.20;1.70;;;;;;;30.28;47.06;100490.63;128366;1084;64170;-86
2021/08/07 09:38:44;;;;;;;2.97;1.90;;;;;;;30.28;47.67;100487.91;128481;1083;65351;-86
2021/08/07 09:41:10;;;;;;;2.83;1.53;;;;;;;30.28;47.04;100484.34;128469;1084;65410;-85
2021/08/07 09:43:49;;;;;;;2.83;1.98;;;;;;;30.29;47.33;100491.46;128458;1084;64190;-84
2021/08/07 09:46:16;;;;;;;2.47;1.80;;;;;;;30.28;47.01;100489.79;128880;1084;63239;-85
2021/08/07 09:48:52;;;;;;;2.73;2.00;;;;;;;30.28;46.98;100489.79;128388;1084;64128;-86
2021/08/07 09:51:26;;;;;;;3.23;2.23;;;;;;;30.27;47.10;100491.64;128467;1082;64439;-86
2021/08/07 09:54:09;;;;;;;2.07;1.70;;;;;;;30.28;47.58;100487.06;128511;1084;64097;-86
2021/08/07 09:56:51;;;;;;;2.67;1.90;;;;;;;30.27;47.55;100486.20;128475;1084;64211;-86
2021/08/07 09:59:20;;;;;;;2.77;1.97;;;;;;;30.27;47.20;100488.92;128499;1084;64124;-86
2021/08/07 10:01:47;;;;;;;2.67;1.90;;;;;;;30.26;47.90;100493.53;128895;1084;64111;-85
2021/08/07 10:04:16;;;;;;;2.30;1.80;;;;;;;30.26;47.39;100490.81;128485;1084;63991;-85
2021/08/07 10:06:56;;;;;;;;;;;;;;;;;;;;;
2021/08/07 10:09:32;;;;;;;2.77;1.97;;;;;;;30.26;47.71;100481.77;128912;1084;64221;-86
2021/08/07 10:12:09;;;;;;;3.40;1.93;;;;;;;30.25;47.27;100485.55;128479;1082;64357;-85
2021/08/07 10:14:39;;;;;;;2.87;2.00;;;;;;;30.24;47.35;100475.67;128540;1084;64284;-85
2021/08/07 10:17:07;;;;;;;3.23;2.20;;;;;;;30.24;47.20;100481.95;128895;1084;61659;-85
2021/08/07 10:19:35;;;;;;;3.63;1.83;;;;;;;30.24;47.10;100487.41;128521;1083;64096;-85
2021/08/07 10:22:06;;;;;;;2.73;1.90;;;;;;;30.23;47.57;100482.14;128895;1084;64131;-85
2021/08/07 10:24:32;;;;;;;2.43;1.67;;;;;;;30.23;47.66;100477.56;128527;1082;64131;-85
2021/08/07 10:27:06;;;;;;;2.63;1.90;;;;;;;30.23;47.11;100472.12;128923;1082;64139;-85
2021/08/07 10:29:38;;;;;;;2.47;1.80;;;;;;;30.22;47.25;100486.75;128454;1084;64138;-86
2021/08/07 10:32:08;;;;;;;2.83;1.90;;;;;;;30.23;47.77;100485.73;128489;1083;64590;-85
2021/08/07 10:34:36;;;;;;;2.75;1.90;;;;;;;30.22;47.01;100480.44;128901;1084;64196;-86
2021/08/07 10:37:04;;;;;;;;;;;;;;;30.22;47.50;100474.98;128542;1084;64127;-85
2021/08/07 10:39:31;;;;;;;2.83;1.90;;;;;;;30.21;47.46;100484.20;128472;1084;64217;-86
2021/08/07 10:41:59;;;;;;;2.67;1.80;;;;;;;30.20;47.09;100488.78;128446;1084;64208;-86
2021/08/07 10:44:25;;;;;;;2.80;1.90;;;;;;;30.20;46.98;100482.50;128720;1082;64202;-85
2021/08/07 10:46:55;;;;;;;2.70;1.70;;;;;;;30.20;47.47;100488.78;128506;1082;64249;-85
2021/08/07 10:49:34;;;;;;;2.43;1.73;;;;;;;30.21;47.12;100486.93;128394;1082;62223;-85
2021/08/07 10:52:00;;;;;;;2.93;1.90;;;;;;;30.20;46.96;100486.06;128707;1082;64093;-86
2021/08/07 10:54:29;;;;;;;2.60;1.90;;;;;;;30.21;46.99;100476.88;128736;1082;64099;-85
2021/08/07 10:56:56;;;;;;;2.53;1.90;;;;;;;30.21;47.02;100482.32;128795;1083;64175;-85
2021/08/07 10:59:26;;;;;;;2.57;1.80;;;;;;;30.21;46.89;100476.04;128754;1083;64099;-85
2021/08/07 11:01:58;;;;;;;2.90;2.10;;;;;;;30.21;47.03;100479.60;128452;1082;64271;-86
2021/08/07 11:04:29;;;;;;;2.20;1.77;;;;;;;30.21;46.92;100479.60;128485;1084;64278;-85
2021/08/07 11:07:05;;;;;;;2.60;1.70;;;;;;;30.21;47.19;100484.20;128875;1084;64132;-86
2021/08/07 11:09:32;;;;;;;2.60;1.77;;;;;;;30.21;46.91;100476.04;128499;1083;64179;-86
2021/08/07 11:12:10;;;;;;;3.37;2.00;;;;;;;30.21;47.24;100485.05;128495;1083;64318;-86
2021/08/07 11:14:48;;;;;;;2.93;1.90;;;;;;;30.20;46.82;100486.06;128501;1084;64253;-85
2021/08/07 11:17:18;;;;;;;2.30;1.67;;;;;;;30.20;47.24;100490.67;128921;1084;64137;-85
2021/08/07 11:20:04;;;;;;;2.50;1.80;;;;;;;30.20;47.13;100496.12;128936;1083;64150;-85
2021/08/07 11:22:38;;;;;;;2.27;1.70;;;;;;;30.20;46.85;100493.39;128914;1082;64150;-85
2021/08/07 11:25:10;;;;;;;3.27;1.83;;;;;;;30.19;46.77;100489.80;128507;1084;64093;-86
2021/08/07 11:30:40;;;;;;;2.70;1.90;;;;;;;30.19;47.22;100476.19;128929;1084;64134;-86